This is the latest recevied weather packets stored in our database for station/object F5PQL-4. If no packets are shown the sender has not sent any weather packets the latest 10 day(s).
| Time | Temp. | Humidity | Pressure | Rain* | Wind** | Luminosity | Snow |
|---|---|---|---|---|---|---|---|
| 1778071893 | 22.22° C | 44% | 1011.9 hPa | - | - | - | - |
| 1778070993 | 21.67° C | 44% | 1012.1 hPa | - | - | - | - |
| 1778070093 | 24.44° C | 41% | 1012 hPa | - | - | - | - |
| 1778069193 | 27.22° C | 37% | 1012 hPa | - | - | - | - |
| 1778068293 | 32.78° C | 33% | 1011.9 hPa | - | - | - | - |
| 1778067393 | 28.33° C | 37% | 1012.1 hPa | - | - | - | - |
| 1778066493 | 27.78° C | 44% | 1012.3 hPa | - | - | - | - |
| 1778065592 | 24.44° C | 47% | 1012.4 hPa | - | - | - | - |
| 1778064692 | 22.78° C | 54% | 1012.4 hPa | - | - | - | - |
| 1778063792 | 19.44° C | 63% | 1012.5 hPa | - | - | - | - |
| 1778062892 | 15.56° C | 70% | 1012.8 hPa | - | - | - | - |
| 1778061992 | 16.11° C | 71% | 1012.6 hPa | - | - | - | - |
| 1778061092 | 15.56° C | 70% | 1012.5 hPa | - | - | - | - |
| 1778060192 | 16.67° C | 71% | 1012.5 hPa | - | - | - | - |
| 1778059292 | 16.11° C | 71% | 1012.4 hPa | - | - | - | - |
| 1778058392 | 15.56° C | 72% | 1012.3 hPa | - | - | - | - |
| 1778057492 | 14.44° C | 74% | 1012.1 hPa | - | - | - | - |
| 1778056592 | 13.89° C | 77% | 1011.9 hPa | - | - | - | - |
| 1778055691 | 12.78° C | 77% | 1011.7 hPa | - | - | - | - |
| 1778054791 | 13.33° C | 78% | 1011.6 hPa | - | - | - | - |
| 1778053891 | 12.78° C | 78% | 1011.4 hPa | - | - | - | - |
| 1778052991 | 13.33° C | 78% | 1011.2 hPa | - | - | - | - |
| 1778052090 | 13.33° C | 79% | 1011.1 hPa | - | - | - | - |
| 1778051190 | 13.89° C | 79% | 1010.8 hPa | - | - | - | - |
| 1778050290 | 13.89° C | 79% | 1010.6 hPa | - | - | - | - |
* Rain since midnight (hover to see other rain measurements)
** Current wind speed in m/s (hover to see current wind gust speed)